Time;durP1;ratioP1;P1;durP2;ratioP2;P2;SDS_P1;SDS_P2;PMS_P1;PMS_P2;Temp;Humidity;BMP_temperature;BMP_pressure;BME280_temperature;BME280_humidity;BME280_pressure;Samples;Min_cycle;Max_cycle;Signal;HPM_P1;HPM_P2
2021/12/07 00:01:34;;;;;;;80.68;32.20;;;;;;;7.91;87.27;98358.94;4897433;29;20426;-51
2021/12/07 00:03:59;;;;;;;78.15;32.58;;;;;;;7.78;88.25;98349.28;4897562;29;20381;-50
2021/12/07 00:06:25;;;;;;;78.88;31.58;;;;;;;7.79;88.29;98366.78;4897612;29;20033;-49
2021/12/07 00:08:54;;;;;;;74.25;32.25;;;;;;;7.79;88.83;98366.78;4897737;29;20474;-49
2021/12/07 00:11:23;;;;;;;75.88;33.13;;;;;;;7.90;88.05;98378.50;4897701;29;20044;-52
2021/12/07 00:13:49;;;;;;;78.65;32.85;;;;;;;8.27;85.80;98349.38;4897534;29;20085;-49
2021/12/07 00:16:15;;;;;;;81.07;33.53;;;;;;;8.18;85.84;98378.00;4897170;29;20040;-50
2021/12/07 00:18:40;;;;;;;76.22;33.42;;;;;;;8.09;86.31;98364.25;4897428;29;20461;-49
2021/12/07 00:21:06;;;;;;;77.22;33.45;;;;;;;7.82;87.12;98345.97;4897146;29;20032;-52
2021/12/07 00:23:32;;;;;;;80.15;32.78;;;;;;;7.71;88.06;98356.47;4897250;29;20028;-50
2021/12/07 00:25:57;;;;;;;84.20;34.28;;;;;;;7.70;88.42;98346.91;4896789;29;20156;-52
2021/12/07 00:28:23;;;;;;;79.75;32.78;;;;;;;7.94;87.35;98350.53;4896911;29;20403;-49
2021/12/07 00:30:51;;;;;;;78.57;32.60;;;;;;;7.80;87.77;98352.50;4896936;29;20028;-49
2021/12/07 00:33:35;;;;;;;79.60;33.42;;;;;;;7.65;87.14;98326.38;4897270;29;20024;-51
2021/12/07 00:36:00;;;;;;;80.45;34.33;;;;;;;7.78;86.79;98331.53;4896692;29;20049;-52
2021/12/07 00:38:26;;;;;;;78.05;34.72;;;;;;;7.48;88.60;98320.03;4896807;29;20100;-50
2021/12/07 00:40:52;;;;;;;80.60;33.53;;;;;;;7.56;87.22;98325.88;4896920;29;20051;-51
2021/12/07 00:43:18;;;;;;;78.28;32.47;;;;;;;7.69;86.96;98337.34;4897040;29;20039;-51
2021/12/07 00:45:45;;;;;;;84.85;34.20;;;;;;;7.48;88.47;98323.47;4896743;29;20021;-52
2021/12/07 00:48:12;;;;;;;76.68;31.83;;;;;;;7.48;88.69;98325.31;4896644;29;20032;-49
2021/12/07 00:50:38;;;;;;;76.90;32.78;;;;;;;7.51;87.81;98330.19;4896648;29;20107;-50
2021/12/07 00:53:05;;;;;;;79.80;32.45;;;;;;;7.56;87.51;98301.25;4896719;29;20160;-52
2021/12/07 00:55:34;;;;;;;80.55;33.10;;;;;;;7.82;86.07;98292.19;4897108;29;20032;-52
2021/12/07 00:58:00;;;;;;;82.37;33.87;;;;;;;7.91;86.36;98300.66;4896827;29;20465;-49
2021/12/07 01:00:27;;;;;;;87.90;34.03;;;;;;;7.53;87.08;98304.31;4896439;29;20315;-49
2021/12/07 01:02:54;;;;;;;82.60;34.35;;;;;;;7.53;87.36;98299.00;4879690;29;20036;-51
2021/12/07 01:05:26;;;;;;;84.57;34.28;;;;;;;7.46;87.51;98277.09;4896763;29;20057;-52
2021/12/07 01:08:21;;;;;;;78.40;33.75;;;;;;;7.49;87.46;98272.16;4896293;29;20469;-49
2021/12/07 01:27:02;;;;;;;78.38;32.08;;;;;;;7.31;87.46;98267.66;4896246;29;20028;-50
2021/12/07 01:29:28;;;;;;;78.20;32.35;;;;;;;7.31;87.67;98275.63;4896308;29;20139;-52
2021/12/07 01:34:45;;;;;;;72.53;31.88;;;;;;;7.28;88.32;98276.03;4896529;29;20043;-50
2021/12/07 01:41:00;;;;;;;86.10;34.17;;;;;;;7.66;87.44;98276.91;4896049;29;20074;-51
2021/12/07 02:01:00;;;;;;;71.50;32.22;;;;;;;7.77;88.02;98260.28;4879204;29;20108;-53
2021/12/07 02:03:25;;;;;;;77.90;32.92;;;;;;;7.80;87.38;98235.97;4896034;29;20029;-52
2021/12/07 02:05:51;;;;;;;79.35;34.25;;;;;;;7.87;87.82;98238.56;4895865;29;20491;-52
2021/12/07 02:08:16;;;;;;;70.15;31.70;;;;;;;7.86;88.05;98229.78;4895645;29;20505;-53
2021/12/07 02:10:42;;;;;;;74.75;32.00;;;;;;;7.87;87.69;98218.19;4895568;29;20544;-52
2021/12/07 02:13:21;;;;;;;81.60;33.63;;;;;;;8.11;86.41;98208.50;4895379;29;20434;-51
2021/12/07 02:15:48;;;;;;;75.32;33.17;;;;;;;8.00;86.90;98217.22;4895265;29;20068;-52
2021/12/07 02:18:13;;;;;;;76.47;32.30;;;;;;;7.92;87.44;98225.44;4895211;29;20524;-50
2021/12/07 02:20:39;;;;;;;77.82;32.88;;;;;;;7.96;87.68;98224.78;4895385;29;20033;-51
2021/12/07 02:23:05;;;;;;;71.30;31.50;;;;;;;7.92;87.85;98207.72;4895156;29;20406;-50
2021/12/07 02:25:32;;;;;;;75.60;33.08;;;;;;;8.02;87.74;98196.59;4895332;29;20032;-50
2021/12/07 02:27:59;;;;;;;77.45;32.35;;;;;;;7.96;87.38;98202.78;4895364;29;20047;-52
2021/12/07 02:30:25;;;;;;;75.60;34.20;;;;;;;7.75;88.98;98196.94;4895492;29;20096;-52
2021/12/07 02:32:55;;;;;;;79.85;33.80;;;;;;;7.77;89.38;98186.94;4895180;29;20039;-52
2021/12/07 02:35:26;;;;;;;78.75;33.55;;;;;;;7.78;89.27;98185.09;4895324;29;20092;-52
2021/12/07 02:37:52;;;;;;;77.68;33.13;;;;;;;7.76;88.61;98195.88;4895232;29;20100;-52
2021/12/07 02:40:18;;;;;;;72.10;31.52;;;;;;;7.80;88.61;98198.91;4895251;29;20087;-52
2021/12/07 02:42:44;;;;;;;70.93;32.05;;;;;;;7.81;87.99;98205.84;4895711;29;20059;-50
2021/12/07 02:45:09;;;;;;;87.78;35.60;;;;;;;7.80;88.17;98212.94;4895411;29;20434;-52
2021/12/07 02:47:35;;;;;;;80.18;32.75;;;;;;;7.77;88.36;98209.97;4895149;29;20052;-49
2021/12/07 02:50:02;;;;;;;77.70;31.77;;;;;;;7.74;88.48;98223.63;4895198;29;20059;-49
2021/12/07 02:52:27;;;;;;;71.57;30.90;;;;;;;7.74;88.21;98213.84;4895301;29;20037;-53
2021/12/07 02:54:53;;;;;;;86.35;33.15;;;;;;;7.69;88.23;98179.31;4895345;29;20025;-51
2021/12/07 02:57:19;;;;;;;71.50;33.17;;;;;;;7.96;87.67;98213.41;4895029;29;20389;-49
2021/12/07 02:59:49;;;;;;;77.82;32.72;;;;;;;7.74;89.10;98168.03;4895752;29;20033;-51
2021/12/07 03:02:16;;;;;;;79.03;33.10;;;;;;;7.91;88.77;98190.22;4898708;29;20017;-49
2021/12/07 03:04:52;;;;;;;80.78;34.08;;;;;;;7.96;88.38;98198.31;4898667;29;20028;-48
2021/12/07 03:07:31;;;;;;;82.80;32.90;;;;;;;8.15;87.27;98175.22;4883152;29;20039;-52
2021/12/07 03:26:08;;;;;;;74.63;31.40;;;;;;;7.97;88.34;98205.19;4898217;29;20032;-51
2021/12/07 03:28:36;;;;;;;69.82;30.75;;;;;;;7.79;88.90;98200.75;4881720;29;20099;-49
2021/12/07 03:31:01;;;;;;;70.53;32.00;;;;;;;7.82;88.95;98204.78;4898254;29;20104;-52
2021/12/07 03:33:27;;;;;;;78.93;33.15;;;;;;;8.21;87.32;98215.91;4898123;29;20127;-54
2021/12/07 03:35:53;;;;;;;73.40;31.20;;;;;;;8.06;87.73;98199.59;4897539;29;20049;-51
2021/12/07 03:38:18;;;;;;;72.93;31.95;;;;;;;8.00;87.42;98211.91;4898007;29;20111;-53
2021/12/07 03:40:44;;;;;;;74.10;30.80;;;;;;;8.05;87.36;98213.88;4898448;29;20039;-50
2021/12/07 03:43:10;;;;;;;78.25;31.65;;;;;;;7.96;87.75;98187.69;4898422;29;20028;-48
2021/12/07 03:45:36;;;;;;;67.53;29.85;;;;;;;7.97;87.98;98183.22;4897985;29;20103;-49
2021/12/07 03:48:03;;;;;;;72.70;30.25;;;;;;;7.80;88.83;98183.81;4898059;29;20112;-50
2021/12/07 03:50:28;;;;;;;72.60;32.13;;;;;;;7.91;88.58;98170.88;4897790;29;20033;-49
2021/12/07 03:52:54;;;;;;;68.53;30.77;;;;;;;7.92;88.88;98185.72;4897839;29;20037;-50
2021/12/07 03:55:19;;;;;;;73.35;31.35;;;;;;;7.87;87.93;98193.53;4897658;29;20104;-49
2021/12/07 03:57:45;;;;;;;71.47;31.25;;;;;;;7.88;88.83;98197.78;4897808;29;20040;-50
2021/12/07 04:00:14;;;;;;;68.80;30.75;;;;;;;8.07;87.06;98209.16;4897739;29;20036;-52
2021/12/07 04:02:41;;;;;;;72.05;30.67;;;;;;;7.89;88.25;98204.72;4897652;29;20509;-51
2021/12/07 04:05:15;;;;;;;71.22;30.45;;;;;;;7.75;87.91;98204.88;4897540;29;20038;-51
2021/12/07 04:07:41;;;;;;;67.22;29.35;;;;;;;7.89;87.97;98213.47;4897278;29;20033;-49
2021/12/07 04:10:07;;;;;;;69.63;30.05;;;;;;;7.80;88.50;98206.84;4897323;29;20443;-51
2021/12/07 04:12:33;;;;;;;70.38;29.70;;;;;;;7.64;89.33;98206.44;4897332;29;20039;-51
2021/12/07 04:14:59;;;;;;;66.82;28.45;;;;;;;7.93;87.85;98219.13;4897635;29;20402;-51
2021/12/07 04:17:24;;;;;;;68.53;30.23;;;;;;;8.05;86.60;98230.56;4897370;29;20084;-50
2021/12/07 04:19:50;;;;;;;61.95;29.40;;;;;;;8.15;85.79;98233.50;4896487;29;20040;-53
2021/12/07 04:22:15;;;;;;;65.82;29.17;;;;;;;7.99;87.33;98252.66;4897257;29;20454;-55
2021/12/07 04:24:41;;;;;;;76.28;30.17;;;;;;;7.97;87.60;98252.09;4897496;29;20028;-56
2021/12/07 04:27:06;;;;;;;65.93;27.90;;;;;;;7.89;88.31;98244.44;4897360;29;20454;-56
2021/12/07 04:29:32;;;;;;;74.68;30.38;;;;;;;8.10;87.76;98216.66;4897541;29;20458;-56
2021/12/07 04:31:57;;;;;;;67.00;30.52;;;;;;;8.40;87.53;98192.81;4896954;29;20035;-55
2021/12/07 04:34:22;;;;;;;72.03;31.15;;;;;;;8.12;88.85;98178.31;4897293;29;20032;-56
2021/12/07 04:36:48;;;;;;;79.28;32.13;;;;;;;8.42;87.84;98169.56;4896604;29;20564;-54
2021/12/07 04:39:13;;;;;;;77.53;31.85;;;;;;;8.33;88.55;98147.81;4880052;29;20413;-56
2021/12/07 04:41:42;;;;;;;78.90;32.83;;;;;;;8.23;89.25;98129.84;4896922;29;20092;-55
2021/12/07 04:44:07;;;;;;;81.80;30.50;;;;;;;8.07;89.58;98185.31;4880588;29;20028;-54
2021/12/07 04:47:14;;;;;;;73.45;30.58;;;;;;;8.12;89.32;98190.75;4897392;29;20032;-53
2021/12/07 04:57:46;;;;;;;68.00;31.27;;;;;;;8.14;89.93;98231.09;4895321;29;20187;-52
2021/12/07 05:00:17;;;;;;;78.55;31.35;;;;;;;8.28;90.19;98239.66;4896600;29;20087;-52
2021/12/07 05:02:46;;;;;;;74.47;31.27;;;;;;;8.17;90.00;98239.41;4896092;29;20028;-52
2021/12/07 05:05:14;;;;;;;75.70;30.27;;;;;;;8.03;90.25;98228.16;4896178;29;20417;-52
2021/12/07 05:07:46;;;;;;;67.97;30.70;;;;;;;8.09;90.12;98234.41;4896029;29;20056;-52
2021/12/07 05:10:23;;;;;;;72.82;31.05;;;;;;;8.13;90.15;98237.41;4895624;29;20095;-51
2021/12/07 05:18:24;;;;;;;76.47;31.38;;;;;;;8.08;91.10;98190.38;4880388;29;20029;-54
2021/12/07 05:39:57;;;;;;;79.03;34.97;;;;;;;8.47;89.80;98193.50;4877282;29;20592;-53
2021/12/07 05:42:23;;;;;;;83.65;35.95;;;;;;;8.51;89.81;98194.69;4876971;29;20036;-53
2021/12/07 05:44:50;;;;;;;83.63;37.63;;;;;;;8.59;89.26;98180.31;4876960;29;20033;-51
2021/12/07 05:47:15;;;;;;;90.55;39.25;;;;;;;8.68;88.72;98175.44;4877016;29;20029;-52
2021/12/07 05:49:41;;;;;;;79.13;34.83;;;;;;;8.40;89.65;98177.69;4876971;29;20047;-52
2021/12/07 05:52:06;;;;;;;78.18;34.58;;;;;;;8.38;90.83;98174.47;4860269;29;20407;-52
2021/12/07 05:54:32;;;;;;;77.72;34.13;;;;;;;8.22;91.79;98180.41;4876913;29;20039;-52
2021/12/07 05:56:57;;;;;;;72.00;32.13;;;;;;;8.29;91.71;98175.03;4876734;29;20036;-53
2021/12/07 05:59:22;;;;;;;76.07;33.70;;;;;;;8.27;91.56;98183.19;4876177;29;20409;-54
2021/12/07 06:01:48;;;;;;;71.22;31.40;;;;;;;8.23;91.11;98193.44;4876138;29;20033;-53
2021/12/07 06:04:13;;;;;;;83.55;35.28;;;;;;;8.27;91.07;98203.59;4876704;29;20044;-53
2021/12/07 06:06:39;;;;;;;79.38;34.20;;;;;;;8.30;92.03;98205.78;4876911;29;20158;-49
2021/12/07 06:09:05;;;;;;;77.13;34.35;;;;;;;8.48;91.84;98200.44;4876577;29;20037;-54
2021/12/07 06:11:30;;;;;;;161.93;72.75;;;;;;;8.70;90.72;98197.25;4893321;29;20041;-53
2021/12/07 06:13:56;;;;;;;116.60;49.95;;;;;;;8.61;89.38;98180.88;4886261;29;20159;-53
2021/12/07 06:16:21;;;;;;;77.85;34.33;;;;;;;9.04;91.09;98173.63;4879085;29;20044;-53
2021/12/07 06:18:47;;;;;;;80.88;34.33;;;;;;;9.00;88.15;98167.97;4891840;29;20037;-52
2021/12/07 06:21:13;;;;;;;77.40;32.97;;;;;;;8.75;87.88;98163.69;4894402;29;20040;-51
2021/12/07 06:23:38;;;;;;;72.35;33.45;;;;;;;8.46;87.62;98178.66;4893077;29;20044;-49
2021/12/07 06:26:04;;;;;;;74.85;33.60;;;;;;;8.50;88.88;98169.22;4894779;29;20127;-51
2021/12/07 06:28:29;;;;;;;84.85;37.03;;;;;;;8.68;90.86;98172.81;4894062;29;20036;-52
2021/12/07 06:30:55;;;;;;;98.05;39.97;;;;;;;9.57;87.71;98175.28;4893010;29;20052;-54
2021/12/07 06:33:21;;;;;;;83.75;37.03;;;;;;;9.16;88.30;98169.94;4893372;29;20036;-51
2021/12/07 06:35:47;;;;;;;79.10;34.95;;;;;;;8.86;88.85;98170.06;4896989;29;20088;-52
2021/12/07 06:38:13;;;;;;;79.15;34.53;;;;;;;8.67;91.05;98179.97;4897059;29;20449;-39
2021/12/07 06:40:39;;;;;;;79.03;35.85;;;;;;;8.84;90.11;98177.44;4897314;29;20131;-41
2021/12/07 06:43:04;;;;;;;89.18;37.50;;;;;;;8.81;90.97;98175.22;4897363;29;20035;-39
2021/12/07 06:45:30;;;;;;;83.13;35.47;;;;;;;8.84;91.69;98171.34;4897268;29;20027;-39
2021/12/07 06:47:55;;;;;;;78.03;36.20;;;;;;;9.02;92.08;98173.06;4896922;29;20029;-39
2021/12/07 06:50:21;;;;;;;80.07;34.13;;;;;;;9.17;91.23;98168.06;4896861;29;20027;-39
2021/12/07 06:52:47;;;;;;;67.43;28.95;;;;;;;9.23;90.66;98161.84;4897613;29;20176;-39
2021/12/07 06:55:12;;;;;;;56.45;25.50;;;;;;;9.26;91.64;98156.06;4897212;29;20056;-40
2021/12/07 06:57:38;;;;;;;44.30;20.45;;;;;;;9.34;90.36;98166.31;4897550;29;20025;-38
2021/12/07 07:00:05;;;;;;;40.15;19.08;;;;;;;9.48;89.47;98148.31;4898011;29;20069;-39
2021/12/07 07:02:31;;;;;;;46.22;19.98;;;;;;;9.58;89.82;98143.19;4880848;29;20060;-39
2021/12/07 07:04:56;;;;;;;36.22;18.40;;;;;;;9.75;88.39;98145.91;4878845;29;20048;-39
2021/12/07 07:07:23;;;;;;;35.35;17.65;;;;;;;9.63;87.98;98142.47;4878366;29;20029;-43
2021/12/07 07:09:50;;;;;;;31.88;16.17;;;;;;;9.63;87.43;98137.16;4878909;29;20115;-39
2021/12/07 07:12:15;;;;;;;29.55;15.57;;;;;;;9.54;88.29;98139.38;4878913;29;20021;-39
2021/12/07 07:14:40;;;;;;;26.65;14.63;;;;;;;9.76;87.30;98147.50;4862704;29;20044;-38
2021/12/07 07:17:06;;;;;;;31.40;15.95;;;;;;;9.57;88.10;98136.25;4880031;29;20106;-39
2021/12/07 07:19:31;;;;;;;31.45;15.32;;;;;;;9.74;88.33;98141.63;4895183;29;20028;-39
2021/12/07 07:22:01;;;;;;;34.88;15.82;;;;;;;9.81;88.18;98138.81;4897777;29;20020;-39
2021/12/07 07:24:27;;;;;;;49.20;27.02;;;;;;;9.87;87.64;98135.22;4898042;29;20035;-40
2021/12/07 07:26:53;;;;;;;36.92;18.33;;;;;;;9.78;88.72;98153.38;4897386;29;20355;-39
2021/12/07 07:29:18;;;;;;;33.28;17.50;;;;;;;9.82;88.48;98115.72;4897527;29;20047;-39
2021/12/07 07:31:44;;;;;;;31.70;15.25;;;;;;;9.83;88.05;98135.94;4897411;29;20492;-40
2021/12/07 07:34:09;;;;;;;31.20;15.25;;;;;;;9.95;87.81;98139.34;4897446;29;20370;-39
2021/12/07 07:36:34;;;;;;;25.73;14.13;;;;;;;10.02;87.60;98140.00;4897234;29;20347;-39
2021/12/07 07:39:00;;;;;;;28.92;14.68;;;;;;;10.07;87.34;98148.06;4897417;29;20061;-39
2021/12/07 07:41:25;;;;;;;28.45;13.60;;;;;;;10.11;86.81;98151.88;4897322;29;20040;-40
2021/12/07 07:43:51;;;;;;;67.32;33.03;;;;;;;10.15;86.82;98155.66;4896837;29;20445;-38
2021/12/07 07:46:16;;;;;;;31.02;13.43;;;;;;;10.07;87.05;98156.06;4896113;29;20016;-39
2021/12/07 07:48:42;;;;;;;20.25;9.80;;;;;;;9.96;87.19;98154.25;4897118;29;20379;-40
2021/12/07 07:51:09;;;;;;;18.60;9.35;;;;;;;9.89;87.08;98165.00;4897334;29;20024;-39
2021/12/07 07:53:35;;;;;;;21.73;10.52;;;;;;;9.81;86.67;98176.03;4897077;29;20080;-38
2021/12/07 07:56:00;;;;;;;19.35;9.40;;;;;;;9.81;87.65;98175.22;4897339;29;20029;-39
2021/12/07 07:58:25;;;;;;;17.83;8.30;;;;;;;9.79;88.21;98178.13;4895088;29;20438;-39
2021/12/07 08:00:51;;;;;;;14.48;7.75;;;;;;;9.87;86.90;98191.00;4883127;29;20064;-39
2021/12/07 08:03:17;;;;;;;13.48;7.00;;;;;;;9.97;86.51;98182.41;4896336;29;20029;-40
2021/12/07 08:05:42;;;;;;;14.13;7.13;;;;;;;9.89;86.20;98177.50;4897139;29;20020;-39
2021/12/07 08:08:07;;;;;;;11.30;6.93;;;;;;;9.95;86.47;98182.66;4896863;29;20032;-38
2021/12/07 08:10:33;;;;;;;10.63;6.57;;;;;;;10.00;85.83;98176.66;4896807;29;20025;-38
2021/12/07 08:13:00;;;;;;;9.57;5.68;;;;;;;9.90;85.19;98176.44;4896909;29;20020;-38
2021/12/07 08:15:27;;;;;;;9.95;5.97;;;;;;;9.87;86.37;98169.75;4896617;29;20029;-38
2021/12/07 08:17:52;;;;;;;11.55;6.18;;;;;;;9.99;85.86;98183.00;4896856;29;20186;-38
2021/12/07 08:20:18;;;;;;;26.23;15.05;;;;;;;9.96;86.59;98197.56;4897032;29;20025;-38
2021/12/07 08:22:43;;;;;;;15.30;9.10;;;;;;;9.98;85.74;98192.81;4896923;29;20144;-40
2021/12/07 08:25:09;;;;;;;11.85;6.38;;;;;;;9.96;86.35;98189.59;4897130;29;20028;-39
2021/12/07 08:27:34;;;;;;;17.50;11.05;;;;;;;9.97;85.79;98188.53;4896795;29;20046;-40
2021/12/07 08:30:00;;;;;;;17.05;7.95;;;;;;;9.98;85.12;98186.72;4896877;29;20382;-39
2021/12/07 08:32:25;;;;;;;9.65;5.60;;;;;;;10.02;85.62;98187.03;4896468;29;20513;-38
2021/12/07 08:34:51;;;;;;;8.30;5.65;;;;;;;10.13;85.18;98184.31;4896305;29;20036;-38
2021/12/07 08:37:16;;;;;;;8.93;5.53;;;;;;;10.14;85.01;98179.81;4896074;29;20044;-39
2021/12/07 08:39:42;;;;;;;7.45;5.30;;;;;;;10.21;84.44;98188.44;4896836;29;20029;-39
2021/12/07 08:42:07;;;;;;;7.70;4.72;;;;;;;10.47;83.40;98178.28;4896718;29;20025;-39
2021/12/07 08:44:33;;;;;;;7.18;4.80;;;;;;;10.33;84.08;98178.56;4896649;29;20033;-39
2021/12/07 08:46:59;;;;;;;8.52;4.78;;;;;;;10.38;84.00;98169.91;4896546;29;20477;-39
2021/12/07 08:49:25;;;;;;;6.90;4.20;;;;;;;10.53;83.75;98166.69;4896643;29;20056;-39
2021/12/07 08:51:51;;;;;;;7.78;4.50;;;;;;;10.61;82.54;98163.63;4896660;29;20453;-39
2021/12/07 08:59:36;;;;;;;7.13;4.40;;;;;;;10.54;82.55;98158.44;4896577;29;20020;-39
2021/12/07 08:59:55;;;;;;;25.60;17.10;;;;;;;10.54;82.95;98149.66;4896900;29;20040;-39
2021/12/07 09:02:22;;;;;;;34.85;20.77;;;;;;;10.77;82.23;98154.00;4896859;29;20028;-46
2021/12/07 09:04:47;;;;;;;8.45;5.40;;;;;;;10.74;82.66;98147.34;4897012;29;20025;-38
2021/12/07 09:07:13;;;;;;;6.93;4.85;;;;;;;10.61;82.93;98139.69;4879673;29;20501;-39
2021/12/07 09:09:39;;;;;;;8.88;5.60;;;;;;;10.72;81.71;98141.44;4896432;29;20028;-39
2021/12/07 09:12:05;;;;;;;6.20;4.25;;;;;;;10.74;81.67;98136.69;4895709;29;20457;-39
2021/12/07 09:14:32;;;;;;;9.52;5.07;;;;;;;10.63;81.67;98134.13;4895588;29;20025;-38
2021/12/07 09:16:57;;;;;;;5.80;3.92;;;;;;;10.47;82.61;98141.88;4896221;29;20132;-39
2021/12/07 09:19:23;;;;;;;6.00;4.20;;;;;;;10.70;81.57;98142.72;4895621;29;20111;-38
2021/12/07 09:21:48;;;;;;;7.43;4.18;;;;;;;10.62;81.26;98140.47;4895738;29;20103;-38
2021/12/07 09:24:14;;;;;;;7.60;4.45;;;;;;;10.72;81.60;98146.78;4895830;29;20438;-38
2021/12/07 09:26:39;;;;;;;9.05;4.80;;;;;;;10.54;82.44;98153.13;4895689;29;20025;-39
2021/12/07 09:29:05;;;;;;;10.68;5.35;;;;;;;10.68;81.30;98135.00;4895438;29;20450;-38
2021/12/07 09:31:30;;;;;;;8.23;4.88;;;;;;;10.74;81.16;98126.03;4894879;29;20098;-39
2021/12/07 09:33:56;;;;;;;7.68;4.95;;;;;;;10.75;80.12;98130.31;4895575;29;20433;-38
2021/12/07 09:36:21;;;;;;;7.85;4.82;;;;;;;10.45;80.76;98135.97;4895508;29;20061;-40
2021/12/07 09:38:47;;;;;;;9.73;4.53;;;;;;;10.40;79.74;98130.56;4895659;29;20036;-39
2021/12/07 09:41:13;;;;;;;8.13;4.72;;;;;;;10.22;79.53;98136.88;4894951;29;20486;-39
2021/12/07 09:43:38;;;;;;;8.13;4.53;;;;;;;10.40;79.39;98140.41;4895776;29;20507;-40
2021/12/07 09:46:05;;;;;;;6.05;4.35;;;;;;;10.09;80.19;98140.66;4896012;29;20029;-39
2021/12/07 09:48:31;;;;;;;8.13;4.32;;;;;;;10.04;80.43;98135.25;4879243;29;20026;-40
2021/12/07 09:50:56;;;;;;;6.13;3.95;;;;;;;10.14;79.42;98127.44;4895552;29;20024;-38
2021/12/07 09:53:23;;;;;;;8.75;4.60;;;;;;;10.24;79.53;98123.34;4895424;29;20028;-39
2021/12/07 09:55:48;;;;;;;8.63;4.93;;;;;;;10.26;78.92;98098.16;4895448;29;20020;-39
2021/12/07 09:58:14;;;;;;;5.88;3.83;;;;;;;10.16;79.32;98114.72;4895660;29;20476;-39
2021/12/07 10:00:40;;;;;;;9.10;4.05;;;;;;;10.13;79.20;98101.94;4895328;29;20029;-38
2021/12/07 10:03:05;;;;;;;7.65;4.72;;;;;;;10.32;78.58;98110.50;4893867;29;20093;-38
2021/12/07 10:05:31;;;;;;;7.18;3.97;;;;;;;10.03;78.59;98104.41;4893515;29;20028;-38
2021/12/07 10:07:57;;;;;;;7.57;3.83;;;;;;;10.26;77.74;98107.97;4893644;29;20020;-40
2021/12/07 10:10:23;;;;;;;5.63;3.70;;;;;;;10.11;77.84;98101.38;4899090;29;20020;-39
2021/12/07 10:12:49;;;;;;;6.70;4.05;;;;;;;10.05;78.04;98085.56;4882957;29;20024;-39
2021/12/07 10:15:15;;;;;;;9.07;4.47;;;;;;;10.18;78.09;98099.38;4868498;29;20039;-36
2021/12/07 10:17:42;;;;;;;7.00;4.00;;;;;;;10.04;78.00;98092.72;4901325;29;20103;-39
2021/12/07 10:20:39;;;;;;;9.43;4.70;;;;;;;10.04;78.09;98092.72;4900948;29;20029;-40
2021/12/07 10:23:21;;;;;;;8.60;4.45;;;;;;;9.70;79.81;98090.00;4901440;29;20408;-38
2021/12/07 10:25:51;;;;;;;8.93;4.47;;;;;;;9.94;78.55;98089.91;4886395;29;20157;-40
2021/12/07 10:28:28;;;;;;;6.95;4.30;;;;;;;9.71;79.83;98091.63;4901115;29;20099;-39
2021/12/07 10:31:01;;;;;;;5.85;3.40;;;;;;;9.64;79.34;98092.81;4901241;29;20043;-38
2021/12/07 10:33:32;;;;;;;5.70;3.70;;;;;;;9.72;79.05;98085.25;4884524;29;20572;-38
2021/12/07 10:36:07;;;;;;;5.60;3.50;;;;;;;9.34;80.19;98080.56;4900964;29;20056;-38
2021/12/07 10:38:32;;;;;;;5.97;3.20;;;;;;;9.58;79.08;98086.59;4901416;29;20092;-38
2021/12/07 10:41:03;;;;;;;7.72;3.30;;;;;;;9.53;78.56;98087.31;4901356;29;20103;-38
2021/12/07 10:44:03;;;;;;;6.72;3.25;;;;;;;9.42;78.80;98080.19;4901321;29;20521;-38
2021/12/07 10:46:40;;;;;;;5.43;3.35;;;;;;;9.64;78.20;98082.19;4901223;29;20047;-39
2021/12/07 10:49:27;;;;;;;5.97;3.60;;;;;;;8.98;79.85;98071.88;4884506;29;20107;-39
2021/12/07 10:52:19;;;;;;;11.90;3.47;;;;;;;9.05;80.06;98075.22;4901264;29;20057;-40
2021/12/07 10:54:57;;;;;;;8.60;3.95;;;;;;;9.19;79.41;98073.09;4901229;29;20029;-38
2021/12/07 10:57:24;;;;;;;7.22;3.38;;;;;;;9.00;80.16;98060.00;4901042;29;20148;-38
2021/12/07 10:59:53;;;;;;;9.48;3.60;;;;;;;9.08;80.53;98058.84;4900940;29;20055;-39
2021/12/07 11:02:18;;;;;;;5.95;3.63;;;;;;;8.91;80.07;98055.28;4901188;29;20399;-38
2021/12/07 11:04:45;;;;;;;8.27;3.42;;;;;;;9.21;79.12;98044.47;4901235;29;20207;-38
2021/12/07 11:07:21;;;;;;;6.90;3.50;;;;;;;9.05;79.60;98055.84;4901348;29;20505;-39
2021/12/07 11:10:23;;;;;;;7.18;3.78;;;;;;;9.19;79.17;98051.88;4884280;29;20044;-37
2021/12/07 11:15:48;;;;;;;9.40;3.53;;;;;;;8.52;81.07;98052.34;4901134;29;20039;-40
2021/12/07 11:18:14;;;;;;;6.28;4.05;;;;;;;8.76;81.72;98058.44;4901134;29;20025;-40
2021/12/07 11:20:39;;;;;;;5.82;4.22;;;;;;;8.98;80.67;98058.63;4898596;29;20124;-39
2021/12/07 11:23:11;;;;;;;6.35;3.70;;;;;;;8.53;81.64;98052.09;4897943;29;20033;-39
2021/12/07 11:31:39;;;;;;;7.50;4.50;;;;;;;8.50;81.91;98041.97;4898012;29;20059;-39
2021/12/07 11:34:13;;;;;;;7.07;4.20;;;;;;;8.56;80.88;98046.31;4898090;29;20685;-38
2021/12/07 11:36:41;;;;;;;6.43;4.30;;;;;;;8.36;81.47;98046.66;4897292;29;20052;-38
2021/12/07 11:39:51;;;;;;;7.25;4.22;;;;;;;8.31;81.43;98041.22;4897712;29;20115;-39
2021/12/07 11:42:25;;;;;;;5.10;3.60;;;;;;;8.10;82.42;98039.94;4894406;29;20127;-38
2021/12/07 11:44:53;;;;;;;5.57;3.25;;;;;;;8.67;79.45;98035.97;4897872;29;20060;-39
2021/12/07 11:47:33;;;;;;;4.93;3.30;;;;;;;8.13;81.22;98039.50;4897616;29;20528;-38
2021/12/07 11:50:03;;;;;;;4.75;2.90;;;;;;;8.30;79.57;98038.81;4897311;29;20029;-39
2021/12/07 11:52:28;;;;;;;;;;;;;;;8.07;80.35;98045.69;4881225;29;20032;-38
2021/12/07 11:54:54;;;;;;;5.53;2.60;;;;;;;8.10;79.20;98036.50;4897522;29;20010;-38
2021/12/07 11:57:19;;;;;;;4.00;2.80;;;;;;;8.16;79.59;98041.69;4897098;29;20035;-40
2021/12/07 11:59:46;;;;;;;5.85;3.00;;;;;;;7.95;80.49;98034.28;4897143;29;20055;-38
2021/12/07 12:02:11;;;;;;;4.95;2.60;;;;;;;8.13;79.26;98042.16;4895474;29;20060;-38
2021/12/07 12:04:38;;;;;;;6.95;2.75;;;;;;;8.08;79.20;98041.22;4897074;29;20060;-43
2021/12/07 12:07:08;;;;;;;3.35;2.47;;;;;;;7.79;79.93;98041.84;4897621;29;20059;-38
2021/12/07 12:09:33;;;;;;;4.63;2.45;;;;;;;7.83;79.03;98034.28;4897082;29;20032;-38
2021/12/07 12:12:20;;;;;;;7.85;2.58;;;;;;;7.69;79.90;98041.63;4897444;29;20149;-38
2021/12/07 12:15:22;;;;;;;12.60;2.70;;;;;;;7.64;79.58;98031.69;4880812;29;20064;-38
2021/12/07 12:17:57;;;;;;;3.78;2.40;;;;;;;7.41;80.16;98032.41;4897231;29;20767;-38
2021/12/07 12:20:55;;;;;;;4.03;2.55;;;;;;;7.37;80.54;98031.25;4880509;29;20091;-38
2021/12/07 12:23:33;;;;;;;5.35;3.35;;;;;;;7.33;79.74;98030.09;4897400;29;20043;-39
2021/12/07 12:26:02;;;;;;;7.63;4.10;;;;;;;7.21;79.37;98035.31;4880853;29;20021;-37
2021/12/07 12:28:38;;;;;;;2.50;1.70;;;;;;;7.16;80.02;98023.78;4897097;29;20181;-39
2021/12/07 12:31:05;;;;;;;3.55;2.25;;;;;;;7.13;80.92;98019.75;4897068;29;20104;-39
2021/12/07 12:34:03;;;;;;;3.70;2.78;;;;;;;7.37;81.01;98031.25;4895487;29;20025;-39
2021/12/07 12:36:34;;;;;;;3.78;2.60;;;;;;;7.17;81.75;98028.06;4844947;29;20044;-39
2021/12/07 12:39:05;;;;;;;4.63;3.10;;;;;;;7.42;81.09;98022.63;4880018;29;20508;-38
2021/12/07 12:41:31;;;;;;;16.08;9.00;;;;;;;7.15;82.20;98036.22;4897193;29;20017;-42
2021/12/07 12:43:59;;;;;;;11.25;5.75;;;;;;;7.32;81.39;98031.09;4896861;29;20035;-39
2021/12/07 12:46:27;;;;;;;4.30;2.90;;;;;;;7.24;82.24;98029.59;4896452;29;20108;-40
2021/12/07 12:48:57;;;;;;;4.13;2.92;;;;;;;7.14;82.88;98028.50;4896346;29;20111;-40
2021/12/07 12:51:22;;;;;;;;;;;;;;;7.04;83.81;98015.78;4895630;29;20107;-39
2021/12/07 12:53:48;;;;;;;4.45;3.00;;;;;;;7.09;83.83;98039.75;4896376;29;19990;-40
2021/12/07 12:56:23;;;;;;;4.80;3.30;;;;;;;7.10;84.32;98029.97;4896223;29;20108;-39
2021/12/07 12:58:56;;;;;;;5.40;3.38;;;;;;;7.04;83.67;98037.78;4896310;29;20108;-39
2021/12/07 13:01:22;;;;;;;5.03;3.47;;;;;;;7.05;83.75;98038.59;4887231;29;20029;-39
2021/12/07 13:04:16;;;;;;;5.28;3.45;;;;;;;7.08;83.71;98043.41;4877569;29;20112;-40
2021/12/07 13:07:25;;;;;;;9.00;4.93;;;;;;;7.06;83.10;98040.19;4877880;29;20029;-40
2021/12/07 13:09:58;;;;;;;4.97;3.00;;;;;;;7.11;83.80;98047.47;4877356;29;20458;-39
2021/12/07 13:12:37;;;;;;;6.00;3.47;;;;;;;7.30;82.39;98040.31;4877289;29;20036;-40
2021/12/07 13:15:11;;;;;;;4.97;2.90;;;;;;;7.10;82.68;98037.91;4877235;29;20104;-39
2021/12/07 13:17:46;;;;;;;4.97;3.10;;;;;;;6.69;84.17;98039.41;4877280;29;20052;-40
2021/12/07 13:20:24;;;;;;;3.72;2.55;;;;;;;6.42;84.51;98035.19;4877525;29;20029;-40